Time;durP1;ratioP1;P1;durP2;ratioP2;P2;SDS_P1;SDS_P2;PMS_P1;PMS_P2;Temp;Humidity;BMP_temperature;BMP_pressure;BME280_temperature;BME280_humidity;BME280_pressure;Samples;Min_cycle;Max_cycle;Signal;HPM_P1;HPM_P2
2023/03/15 00:01:14;;;;;;;3.05;1.20;;;;;;;2.00;100.00;100558.59;6299116;28;20349;-74
2023/03/15 00:04:16;;;;;;;3.35;0.75;;;;;;;1.93;100.00;100552.66;6286455;28;20083;-74
2023/03/15 00:07:18;;;;;;;3.92;1.25;;;;;;;1.95;100.00;100557.81;6277357;28;20057;-74
2023/03/15 00:10:19;;;;;;;5.57;0.75;;;;;;;1.95;100.00;100558.69;6277204;28;20048;-74
2023/03/15 00:13:21;;;;;;;6.03;0.75;;;;;;;1.92;100.00;100563.06;6277742;28;20437;-74
2023/03/15 00:16:25;;;;;;;5.13;1.23;;;;;;;1.95;100.00;100579.41;6293496;28;20045;-74
2023/03/15 00:19:27;;;;;;;5.15;1.08;;;;;;;1.92;100.00;100574.28;6294372;28;20333;-74
2023/03/15 00:22:29;;;;;;;4.70;1.08;;;;;;;1.96;100.00;100573.34;6302351;28;20048;-74
2023/03/15 00:25:31;;;;;;;6.72;0.80;;;;;;;2.00;100.00;100579.31;6297827;28;20056;-74
2023/03/15 00:28:32;;;;;;;2.42;0.93;;;;;;;2.06;100.00;100586.09;6302365;28;20049;-74
2023/03/15 00:31:34;;;;;;;0.52;0.45;;;;;;;2.02;100.00;100582.72;6299563;28;20068;-74
2023/03/15 00:34:36;;;;;;;7.05;0.77;;;;;;;1.98;100.00;100591.44;6295464;28;20067;-74
2023/03/15 00:37:38;;;;;;;9.38;0.77;;;;;;;2.00;100.00;100600.06;6302058;28;20445;-74
2023/03/15 00:40:40;;;;;;;1.38;0.75;;;;;;;2.07;100.00;100593.00;6301823;28;20056;-74
2023/03/15 00:43:41;;;;;;;2.30;1.38;;;;;;;2.14;100.00;100594.59;6301631;28;20048;-74
2023/03/15 00:46:43;;;;;;;2.65;0.77;;;;;;;2.12;100.00;100596.34;6301591;28;20048;-74
2023/03/15 00:49:44;;;;;;;2.58;1.20;;;;;;;2.14;100.00;100603.22;6301660;28;20350;-74
2023/03/15 00:52:47;;;;;;;1.73;0.77;;;;;;;2.18;100.00;100594.47;6301324;28;20055;-74
2023/03/15 00:55:48;;;;;;;4.20;1.05;;;;;;;2.16;100.00;100608.34;6292095;28;20049;-74
2023/03/15 00:58:51;;;;;;;9.38;1.45;;;;;;;2.17;100.00;100608.31;6301453;28;20051;-74
2023/03/15 01:01:53;;;;;;;0.52;0.50;;;;;;;2.15;100.00;100612.69;6301369;28;20048;-74
2023/03/15 01:04:54;;;;;;;6.90;1.00;;;;;;;2.14;100.00;100607.53;6301259;28;20048;-74
2023/03/15 01:07:56;;;;;;;4.97;0.70;;;;;;;2.20;100.00;100607.41;6280642;28;20053;-74
2023/03/15 01:11:02;;;;;;;6.75;0.80;;;;;;;2.24;100.00;100609.03;6276485;28;20076;-74
2023/03/15 01:14:04;;;;;;;0.47;0.47;;;;;;;2.29;100.00;100615.84;6276094;28;20345;-74
2023/03/15 01:17:06;;;;;;;4.50;0.65;;;;;;;2.25;100.00;100621.13;6276180;28;20051;-74
2023/03/15 01:20:09;;;;;;;3.22;0.82;;;;;;;2.27;100.00;100621.91;6275954;28;20048;-74
2023/03/15 01:23:12;;;;;;;4.88;0.90;;;;;;;2.35;100.00;100620.03;6276070;28;20126;-74
2023/03/15 01:26:14;;;;;;;9.18;1.15;;;;;;;2.36;100.00;100616.53;6294413;28;20049;-74
2023/03/15 01:29:16;;;;;;;0.75;0.52;;;;;;;2.33;100.00;100626.16;6277399;28;20048;-74
2023/03/15 01:32:18;;;;;;;11.90;0.90;;;;;;;2.28;100.00;100629.69;6291153;28;20436;-74
2023/03/15 01:35:19;;;;;;;1.13;0.55;;;;;;;2.34;100.00;100627.84;6293300;28;20056;-74
2023/03/15 01:38:22;;;;;;;0.80;0.63;;;;;;;2.36;100.00;100632.09;6275818;28;20049;-74
2023/03/15 01:41:24;;;;;;;1.15;0.57;;;;;;;2.31;100.00;100631.34;6275763;28;20048;-74
2023/03/15 01:44:48;;;;;;;8.23;0.73;;;;;;;2.36;100.00;100632.09;6275751;28;20052;-74
2023/03/15 01:47:52;;;;;;;2.13;0.60;;;;;;;2.35;100.00;100639.91;6300566;28;20040;-74
2023/03/15 01:50:54;;;;;;;9.48;1.65;;;;;;;2.27;100.00;100647.84;6300476;28;20053;-74
2023/03/15 01:54:01;;;;;;;4.10;0.88;;;;;;;2.21;100.00;100646.25;6300223;28;20045;-74
2023/03/15 01:57:08;;;;;;;7.82;1.67;;;;;;;2.24;100.00;100650.53;6291450;28;20063;-74
2023/03/15 02:00:13;;;;;;;2.97;0.80;;;;;;;2.25;100.00;100649.63;6300341;28;20044;-74
2023/03/15 02:03:21;;;;;;;3.13;0.57;;;;;;;2.26;100.00;100652.19;6299987;28;20356;-74
2023/03/15 02:06:23;;;;;;;2.38;0.40;;;;;;;2.28;100.00;100658.22;6300116;28;20428;-75
2023/03/15 02:09:32;;;;;;;3.53;0.82;;;;;;;2.33;100.00;100657.25;6299896;28;20040;-74
2023/03/15 02:12:38;;;;;;;7.97;1.00;;;;;;;2.30;100.00;100660.75;6299630;28;20345;-74
2023/03/15 02:15:45;;;;;;;0.98;0.68;;;;;;;2.33;100.00;100662.44;6299967;28;20436;-74
2023/03/15 02:18:47;;;;;;;6.22;0.65;;;;;;;2.31;100.00;100659.88;6299731;28;20072;-74
2023/03/15 02:22:00;;;;;;;7.03;1.02;;;;;;;2.33;100.00;100646.91;6299758;28;20459;-74
2023/03/15 02:25:12;;;;;;;1.35;0.75;;;;;;;2.29;100.00;100657.31;6292726;28;20036;-75
2023/03/15 02:28:17;;;;;;;12.25;1.38;;;;;;;2.23;100.00;100666.97;6300103;28;20052;-74
2023/03/15 02:31:18;;;;;;;5.65;0.82;;;;;;;2.18;100.00;100664.47;6301041;28;20040;-74
2023/03/15 02:34:24;;;;;;;2.15;0.88;;;;;;;2.19;100.00;100673.94;6308325;28;20049;-75
2023/03/15 02:37:25;;;;;;;8.57;2.10;;;;;;;2.22;100.00;100671.28;6307844;28;20048;-75
2023/03/15 02:40:29;;;;;;;3.47;1.17;;;;;;;2.13;100.00;100675.78;6308056;28;20056;-74
2023/03/15 02:43:33;;;;;;;1.27;0.88;;;;;;;2.19;100.00;100673.09;6307885;28;20056;-74
2023/03/15 02:46:35;;;;;;;5.80;1.50;;;;;;;2.13;100.00;100678.38;6307730;28;20052;-74
2023/03/15 02:49:40;;;;;;;5.53;1.52;;;;;;;2.10;100.00;100670.69;6307790;28;20455;-74
2023/03/15 02:52:41;;;;;;;5.53;1.00;;;;;;;2.13;100.00;100681.81;6307702;28;20452;-74
2023/03/15 02:55:43;;;;;;;4.00;1.15;;;;;;;2.17;100.00;100690.41;6305932;28;20341;-74
2023/03/15 02:58:45;;;;;;;2.85;1.10;;;;;;;2.19;100.00;100689.50;6307754;28;20464;-74
2023/03/15 03:01:47;;;;;;;3.35;1.40;;;;;;;2.18;100.00;100692.09;6307385;28;20051;-74
2023/03/15 03:04:48;;;;;;;6.00;0.98;;;;;;;2.20;100.00;100698.97;6307719;28;20044;-74
2023/03/15 03:07:49;;;;;;;2.40;1.13;;;;;;;2.21;100.00;100711.06;6307514;28;20052;-74
2023/03/15 03:10:51;;;;;;;6.68;1.83;;;;;;;2.20;100.00;100714.53;6307788;28;20056;-74
2023/03/15 03:13:53;;;;;;;2.47;1.23;;;;;;;2.21;100.00;100717.97;6307211;28;20349;-75
2023/03/15 03:16:55;;;;;;;8.85;1.40;;;;;;;2.20;100.00;100714.53;6307181;28;20052;-74
2023/03/15 03:19:56;;;;;;;8.77;1.73;;;;;;;2.21;100.00;100730.94;6307599;28;20048;-74
2023/03/15 03:22:57;;;;;;;0.95;0.70;;;;;;;2.27;100.00;100734.28;6307267;28;20051;-75
2023/03/15 03:26:01;;;;;;;2.63;1.88;;;;;;;2.35;100.00;100744.50;6306355;28;20045;-74
2023/03/15 03:29:04;;;;;;;5.78;1.42;;;;;;;2.35;100.00;100744.50;6293144;28;20048;-75
2023/03/15 03:32:06;;;;;;;3.53;2.13;;;;;;;2.32;100.00;100749.75;6287793;28;20128;-74
2023/03/15 03:35:08;;;;;;;10.27;1.98;;;;;;;2.28;100.00;100740.31;6307336;28;20060;-75
2023/03/15 03:38:11;;;;;;;9.82;2.13;;;;;;;2.31;100.00;100740.25;6307277;28;20044;-75
2023/03/15 03:41:13;;;;;;;1.70;1.42;;;;;;;2.35;100.00;100759.19;6300620;28;20357;-74
2023/03/15 03:44:16;;;;;;;3.55;2.17;;;;;;;2.28;100.00;100772.28;6301815;28;20040;-75
2023/03/15 03:47:18;;;;;;;1.98;1.48;;;;;;;2.28;100.00;100776.63;6303203;28;20075;-74
2023/03/15 03:50:19;;;;;;;6.35;2.17;;;;;;;2.29;100.00;100793.88;6303141;28;20048;-75
2023/03/15 03:53:21;;;;;;;13.65;2.20;;;;;;;2.31;100.00;100792.09;6302889;28;20048;-75
2023/03/15 03:56:22;;;;;;;6.75;2.10;;;;;;;2.33;100.00;100805.06;6296468;28;20499;-75
2023/03/15 03:59:25;;;;;;;6.57;1.92;;;;;;;2.28;100.00;100803.41;6302875;28;20055;-75
2023/03/15 04:02:26;;;;;;;9.05;2.22;;;;;;;2.29;100.00;100812.88;6301090;28;20056;-74
2023/03/15 04:05:28;;;;;;;3.97;2.45;;;;;;;2.40;100.00;100807.50;6302720;28;20055;-75
2023/03/15 04:08:29;;;;;;;10.98;2.35;;;;;;;2.37;100.00;100812.75;6302251;28;20052;-74
2023/03/15 04:11:30;;;;;;;5.00;1.77;;;;;;;2.37;100.00;100822.28;6302063;28;20059;-74
2023/03/15 04:14:33;;;;;;;4.85;1.70;;;;;;;2.39;100.00;100831.72;6277774;28;20049;-75
2023/03/15 04:17:34;;;;;;;3.05;1.70;;;;;;;2.43;100.00;100835.97;6277691;28;20056;-75
2023/03/15 04:20:36;;;;;;;4.43;2.22;;;;;;;2.49;100.00;100837.59;6280184;28;20049;-75
2023/03/15 04:23:37;;;;;;;3.97;1.65;;;;;;;2.48;100.00;100846.25;6302246;28;20054;-75
2023/03/15 04:26:39;;;;;;;3.88;1.70;;;;;;;2.45;100.00;100851.50;6302258;28;20436;-75
2023/03/15 04:29:43;;;;;;;3.45;1.88;;;;;;;2.44;100.00;100848.06;6290871;28;20048;-74
2023/03/15 04:32:45;;;;;;;4.53;1.77;;;;;;;2.47;100.00;100852.34;6285333;28;20114;-75
2023/03/15 04:35:46;;;;;;;6.32;2.20;;;;;;;2.49;100.00;100855.75;6281658;28;20583;-75
2023/03/15 04:38:48;;;;;;;3.60;1.88;;;;;;;2.50;100.00;100852.28;6282342;28;20048;-75
2023/03/15 04:41:49;;;;;;;5.47;2.00;;;;;;;2.56;100.00;100857.34;6282404;28;20052;-75
2023/03/15 04:44:52;;;;;;;9.13;2.45;;;;;;;2.54;100.00;100862.59;6282081;28;20044;-74
2023/03/15 04:47:55;;;;;;;2.78;1.67;;;;;;;2.49;100.00;100861.78;6280824;28;20121;-75
2023/03/15 04:50:56;;;;;;;4.50;1.98;;;;;;;2.51;100.00;100867.81;6285598;28;20544;-75
2023/03/15 04:53:57;;;;;;;1.70;1.48;;;;;;;2.48;100.00;100874.78;6282153;28;20044;-75
2023/03/15 04:56:59;;;;;;;8.73;2.38;;;;;;;2.52;100.00;100873.84;6301203;28;20040;-75
2023/03/15 05:00:02;;;;;;;2.78;2.08;;;;;;;2.50;100.00;100889.47;6284373;28;20048;-75
2023/03/15 05:03:03;;;;;;;9.40;2.28;;;;;;;2.42;100.00;100895.66;6281697;28;20047;-77
2023/03/15 05:06:06;;;;;;;8.40;1.85;;;;;;;2.43;100.00;100900.81;6284720;28;20127;-74
2023/03/15 05:09:08;;;;;;;5.03;2.53;;;;;;;2.40;100.00;100900.84;6270784;28;20124;-75
2023/03/15 05:12:10;;;;;;;5.22;1.98;;;;;;;2.42;100.00;100900.84;6276424;28;20040;-76
2023/03/15 05:15:12;;;;;;;3.78;2.22;;;;;;;2.39;100.00;100906.94;6267127;28;20047;-76
2023/03/15 05:18:14;;;;;;;5.05;3.05;;;;;;;2.44;100.00;100917.22;6268297;28;20127;-75
2023/03/15 05:21:15;;;;;;;7.90;2.05;;;;;;;2.44;100.00;100927.59;6269247;28;20057;-75
2023/03/15 05:24:17;;;;;;;1.98;1.52;;;;;;;2.43;100.00;100931.09;6283447;28;20044;-75
2023/03/15 05:27:18;;;;;;;2.50;2.03;;;;;;;2.39;100.00;100934.59;6281453;28;20056;-75
2023/03/15 05:30:21;;;;;;;4.18;1.92;;;;;;;2.34;100.00;100926.91;6300511;28;20449;-74
2023/03/15 05:33:23;;;;;;;8.02;2.65;;;;;;;2.24;100.00;100940.91;6300895;28;20044;-75
2023/03/15 05:36:24;;;;;;;4.90;2.72;;;;;;;2.14;100.00;100950.56;6299824;28;20098;-75
2023/03/15 05:39:26;;;;;;;5.20;2.50;;;;;;;2.11;100.00;100950.59;6298143;28;20059;-74
2023/03/15 05:42:28;;;;;;;2.33;1.50;;;;;;;2.15;100.00;100951.41;6292462;28;20514;-76
2023/03/15 05:45:30;;;;;;;4.85;1.90;;;;;;;2.16;100.00;100958.31;6275264;28;20049;-75
2023/03/15 05:48:32;;;;;;;5.90;2.22;;;;;;;2.10;100.00;100966.19;6275888;28;20057;-75
2023/03/15 05:51:33;;;;;;;7.45;2.50;;;;;;;1.96;100.00;100967.25;6281858;28;20048;-75
2023/03/15 05:54:34;;;;;;;6.78;2.42;;;;;;;1.91;100.00;100973.38;6296634;28;20071;-75
2023/03/15 05:57:36;;;;;;;4.55;1.92;;;;;;;1.90;100.00;100975.09;6291196;28;20441;-75
2023/03/15 06:00:39;;;;;;;2.40;1.65;;;;;;;1.97;100.00;100979.31;6291578;28;20056;-75
2023/03/15 06:03:40;;;;;;;7.25;1.85;;;;;;;1.98;100.00;100990.53;6288641;28;20044;-74
2023/03/15 06:06:41;;;;;;;12.27;2.45;;;;;;;2.05;100.00;100993.91;6282916;28;20049;-75
2023/03/15 06:09:42;;;;;;;5.43;2.33;;;;;;;2.05;100.00;100999.97;6283259;28;20049;-75
2023/03/15 06:12:44;;;;;;;5.50;1.92;;;;;;;2.07;100.00;100999.91;6283114;28;20049;-75
2023/03/15 06:15:47;;;;;;;4.88;2.53;;;;;;;2.03;100.00;101012.06;6286196;28;20123;-75
2023/03/15 06:18:49;;;;;;;5.35;2.17;;;;;;;2.06;100.00;101006.84;6286397;28;20051;-75
2023/03/15 06:21:51;;;;;;;3.47;1.95;;;;;;;2.02;100.00;101023.31;6290358;28;20055;-75
2023/03/15 06:24:52;;;;;;;4.55;1.75;;;;;;;2.11;100.00;101025.78;6286403;28;20425;-75
2023/03/15 06:27:53;;;;;;;2.40;1.75;;;;;;;2.15;100.00;101034.38;6286781;28;20044;-75
2023/03/15 06:30:56;;;;;;;7.70;1.90;;;;;;;2.12;100.00;101037.00;6282250;28;20041;-75
2023/03/15 06:33:57;;;;;;;6.28;2.42;;;;;;;2.12;100.00;101043.03;6288790;28;20064;-75
2023/03/15 06:36:59;;;;;;;2.38;1.70;;;;;;;2.08;100.00;101038.78;6295758;28;20060;-75
2023/03/15 06:40:02;;;;;;;5.88;2.33;;;;;;;2.07;100.00;101052.63;6299627;28;20052;-75
2023/03/15 06:43:05;;;;;;;2.97;1.67;;;;;;;2.06;100.00;101056.09;6299410;28;20194;-75
2023/03/15 06:46:08;;;;;;;1.83;1.60;;;;;;;2.02;100.00;101065.63;6298946;28;20123;-75
2023/03/15 06:49:09;;;;;;;4.75;1.60;;;;;;;2.05;100.00;101061.31;6285941;28;20040;-75
2023/03/15 06:52:11;;;;;;;3.22;1.77;;;;;;;2.11;100.00;101067.25;6285689;28;20075;-75
2023/03/15 06:55:16;;;;;;;5.03;1.52;;;;;;;2.12;100.00;101065.53;6286935;28;20049;-75
2023/03/15 06:58:18;;;;;;;2.15;1.30;;;;;;;2.14;100.00;101071.56;6285631;28;20040;-75
2023/03/15 07:01:21;;;;;;;2.42;1.63;;;;;;;2.14;100.00;101081.94;6286563;28;20061;-74
2023/03/15 07:04:22;;;;;;;9.63;1.23;;;;;;;2.14;100.00;101087.97;6286276;28;20428;-74
2023/03/15 07:07:23;;;;;;;2.25;1.17;;;;;;;2.25;100.00;101100.78;6285563;28;20449;-73
2023/03/15 07:10:25;;;;;;;5.57;1.73;;;;;;;2.21;100.00;101093.91;6285715;28;20056;-73
2023/03/15 07:13:26;;;;;;;2.63;1.77;;;;;;;2.23;100.00;101099.94;6287621;28;20045;-73
2023/03/15 07:16:29;;;;;;;1.65;1.10;;;;;;;2.32;100.00;101111.91;6281686;28;20065;-73
2023/03/15 07:19:31;;;;;;;2.55;1.10;;;;;;;2.34;100.00;101108.44;6288025;28;20048;-73
2023/03/15 07:22:32;;;;;;;1.85;1.08;;;;;;;2.49;100.00;101117.72;6290531;28;20052;-73
2023/03/15 07:25:33;;;;;;;9.70;1.65;;;;;;;2.48;100.00;101131.56;6290063;28;20455;-73
2023/03/15 07:28:35;;;;;;;6.85;1.35;;;;;;;2.53;100.00;101138.41;6292070;28;20056;-73
2023/03/15 07:31:37;;;;;;;9.20;1.73;;;;;;;2.63;100.00;101140.88;6287257;28;20045;-73
2023/03/15 07:34:39;;;;;;;7.10;1.02;;;;;;;2.66;100.00;101146.03;6291293;28;20049;-73
2023/03/15 07:37:40;;;;;;;3.72;0.85;;;;;;;2.69;100.00;101146.00;6289261;28;20361;-73
2023/03/15 07:40:42;;;;;;;3.17;0.98;;;;;;;2.73;100.00;101152.84;6291671;28;20051;-74
2023/03/15 07:43:43;;;;;;;2.95;1.00;;;;;;;2.79;100.00;101160.53;6289671;28;20041;-73
2023/03/15 07:46:46;;;;;;;6.10;1.20;;;;;;;2.78;100.00;101167.47;6290166;28;20060;-73
2023/03/15 07:49:47;;;;;;;7.10;1.10;;;;;;;2.74;100.00;101171.00;6289623;28;20392;-73
2023/03/15 07:52:48;;;;;;;4.55;0.90;;;;;;;2.90;100.00;101176.81;6303308;28;20044;-73
2023/03/15 07:55:50;;;;;;;1.75;0.90;;;;;;;2.84;100.00;101174.31;6302888;28;20055;-73
2023/03/15 07:58:51;;;;;;;3.42;1.02;;;;;;;2.90;100.00;101183.72;6302922;28;20049;-74
2023/03/15 08:01:54;;;;;;;2.08;0.90;;;;;;;3.01;100.00;101180.09;6303093;28;20467;-74
2023/03/15 08:04:55;;;;;;;2.75;0.98;;;;;;;2.96;100.00;101184.53;6301394;28;20048;-74
2023/03/15 08:07:56;;;;;;;0.50;0.50;;;;;;;3.02;100.00;101187.00;6280185;28;20041;-73
2023/03/15 08:10:59;;;;;;;1.92;0.93;;;;;;;3.09;100.00;101192.09;6281247;28;20049;-73
2023/03/15 08:14:00;;;;;;;1.58;0.70;;;;;;;3.11;100.00;101198.16;6287898;28;20056;-73
2023/03/15 08:17:03;;;;;;;6.43;0.80;;;;;;;3.11;100.00;101200.75;6279391;28;20053;-73
2023/03/15 08:20:08;;;;;;;5.18;0.90;;;;;;;3.14;100.00;101200.72;6277497;28;20357;-74
2023/03/15 08:23:15;;;;;;;7.70;1.27;;;;;;;3.22;100.00;101204.00;6287554;28;20433;-74
2023/03/15 08:26:16;;;;;;;6.03;0.43;;;;;;;3.31;100.00;101216.84;6292153;28;20044;-73
2023/03/15 08:29:17;;;;;;;1.85;0.50;;;;;;;3.40;100.00;101221.06;6295553;28;20052;-74
2023/03/15 08:32:20;;;;;;;1.33;0.75;;;;;;;3.42;100.00;101235.75;6285633;28;20552;-74
2023/03/15 08:35:22;;;;;;;4.25;1.80;;;;;;;3.40;100.00;101231.44;6276928;28;20041;-73
2023/03/15 08:38:25;;;;;;;1.23;0.70;;;;;;;3.44;100.00;101241.75;6280971;28;20449;-73
2023/03/15 08:41:26;;;;;;;2.20;0.75;;;;;;;3.50;100.00;101246.88;6281427;28;20045;-73
2023/03/15 08:44:27;;;;;;;6.00;1.35;;;;;;;3.58;100.00;101245.88;6276669;28;20111;-73
2023/03/15 08:47:30;;;;;;;2.40;0.85;;;;;;;3.67;100.00;101256.97;6285929;28;20455;-73
2023/03/15 08:50:31;;;;;;;2.70;1.83;;;;;;;3.72;100.00;101256.91;6286716;28;20079;-73
2023/03/15 08:53:33;;;;;;;7.72;0.93;;;;;;;3.70;100.00;101266.47;6287816;28;20052;-74
2023/03/15 08:56:34;;;;;;;5.05;0.98;;;;;;;3.76;100.00;101269.81;6290078;28;20503;-72
2023/03/15 08:59:36;;;;;;;7.22;0.93;;;;;;;3.83;100.00;101269.72;6276554;28;20049;-73
2023/03/15 09:02:38;;;;;;;7.95;0.77;;;;;;;3.90;100.00;101284.31;6285045;28;20048;-75
2023/03/15 09:05:40;;;;;;;5.40;0.70;;;;;;;3.90;100.00;101276.53;6292600;28;20428;-74
2023/03/15 09:08:41;;;;;;;1.27;0.75;;;;;;;3.94;100.00;101278.19;6301005;28;20048;-73
2023/03/15 09:11:43;;;;;;;10.15;1.38;;;;;;;4.06;100.00;101289.25;6301063;28;20352;-74
2023/03/15 09:14:44;;;;;;;1.40;0.47;;;;;;;4.06;100.00;101285.78;6298357;28;20395;-72
2023/03/15 09:17:49;;;;;;;2.78;0.63;;;;;;;4.08;100.00;101284.84;6295327;28;20063;-71
2023/03/15 09:20:50;;;;;;;6.93;1.48;;;;;;;4.27;100.00;101280.19;6301234;28;20048;-72
2023/03/15 09:23:52;;;;;;;0.85;0.45;;;;;;;4.32;100.00;101286.16;6300952;28;20040;-72
2023/03/15 09:26:53;;;;;;;6.72;0.47;;;;;;;4.42;100.00;101294.66;6300445;28;20344;-71
2023/03/15 09:29:54;;;;;;;2.45;0.57;;;;;;;4.43;100.00;101298.09;6289666;28;20045;-70
2023/03/15 09:32:57;;;;;;;3.10;0.60;;;;;;;4.51;100.00;101296.22;6291013;28;20044;-72
2023/03/15 09:35:59;;;;;;;4.80;0.45;;;;;;;4.52;100.00;101297.94;6300600;28;20052;-71
2023/03/15 09:39:01;;;;;;;4.28;0.98;;;;;;;4.52;100.00;101296.19;6300188;28;20040;-71
2023/03/15 09:42:08;;;;;;;1.88;0.88;;;;;;;4.63;100.00;101305.53;6299723;28;20376;-71
2023/03/15 09:45:20;;;;;;;1.23;0.30;;;;;;;4.68;100.00;101296.75;6295205;28;20048;-72
2023/03/15 09:48:27;;;;;;;2.78;0.93;;;;;;;4.80;100.00;101306.03;6287212;28;20055;-72
2023/03/15 09:51:39;;;;;;;1.95;0.63;;;;;;;4.94;100.00;101295.34;6289195;28;20056;-72
2023/03/15 09:54:46;;;;;;;2.00;0.57;;;;;;;5.08;100.00;101303.72;6285945;28;20044;-72
2023/03/15 09:57:52;;;;;;;7.72;0.73;;;;;;;5.16;100.00;101306.16;6288076;28;20049;-71
2023/03/15 10:00:59;;;;;;;3.28;0.60;;;;;;;5.12;99.26;101310.56;6287403;28;20433;-73
2023/03/15 10:04:09;;;;;;;2.38;0.40;;;;;;;5.06;100.00;101308.97;6285884;28;20469;-72
2023/03/15 10:07:15;;;;;;;4.95;0.35;;;;;;;5.00;100.00;101308.25;6297872;28;20041;-73
2023/03/15 10:10:25;;;;;;;3.55;1.17;;;;;;;5.08;99.89;101308.91;6300193;28;20037;-74
2023/03/15 10:13:47;;;;;;;2.03;0.63;;;;;;;5.24;99.81;101302.50;6297550;28;20379;-74
2023/03/15 10:16:50;;;;;;;6.43;0.95;;;;;;;5.42;100.00;101305.56;6286259;28;20043;-73
2023/03/15 10:20:00;;;;;;;2.92;0.40;;;;;;;5.45;88.86;101318.53;6299817;28;20048;-74
2023/03/15 10:23:09;;;;;;;0.30;0.30;;;;;;;5.46;84.10;101318.50;6298240;28;20064;-72
2023/03/15 10:26:15;;;;;;;1.10;0.57;;;;;;;5.33;83.53;101320.53;6299469;28;20041;-72
2023/03/15 10:29:20;;;;;;;1.48;0.25;;;;;;;5.31;85.12;101316.22;6283332;28;20052;-73
2023/03/15 10:32:25;;;;;;;7.25;1.02;;;;;;;5.40;85.72;101329.06;6299665;28;20053;-73
2023/03/15 10:35:28;;;;;;;2.35;0.43;;;;;;;5.32;76.38;101313.59;6299782;28;20142;-74
2023/03/15 10:38:30;;;;;;;1.80;0.35;;;;;;;5.38;81.24;101330.00;6291842;28;20055;-73
2023/03/15 10:41:37;;;;;;;1.17;0.40;;;;;;;5.37;78.71;101326.53;6299628;28;20051;-73
2023/03/15 10:44:39;;;;;;;9.30;0.93;;;;;;;5.41;78.67;101324.72;6299757;28;20059;-73
2023/03/15 10:47:43;;;;;;;2.45;0.40;;;;;;;5.40;81.18;101334.25;6299546;28;20041;-74
2023/03/15 10:50:46;;;;;;;4.22;0.85;;;;;;;5.39;83.74;101331.69;6295706;28;20048;-73
2023/03/15 10:53:53;;;;;;;1.25;0.50;;;;;;;5.60;78.85;101345.09;6288872;28;20041;-74
2023/03/15 10:57:00;;;;;;;1.13;0.50;;;;;;;5.75;77.66;101332.59;6292171;28;20041;-74
2023/03/15 11:00:08;;;;;;;5.63;0.90;;;;;;;5.88;74.01;101336.63;6279673;28;20098;-72
2023/03/15 11:03:19;;;;;;;1.05;0.63;;;;;;;5.98;75.81;101338.13;6279508;28;20400;-74
2023/03/15 11:06:27;;;;;;;2.33;0.52;;;;;;;5.88;74.09;101327.94;6286743;28;20044;-74
2023/03/15 11:09:39;;;;;;;6.68;0.77;;;;;;;5.85;76.74;101329.72;6296225;28;20056;-73
2023/03/15 11:12:40;;;;;;;3.80;0.57;;;;;;;5.83;74.71;101336.75;6304078;28;20456;-73
2023/03/15 11:15:53;;;;;;;1.27;0.52;;;;;;;5.83;74.25;101348.94;6290549;28;20049;-74
2023/03/15 11:18:57;;;;;;;4.00;1.10;;;;;;;5.81;75.23;101368.94;6290443;28;20048;-73
2023/03/15 11:22:02;;;;;;;0.65;0.30;;;;;;;5.78;75.24;101369.91;6288628;28;20353;-74
2023/03/15 11:25:03;;;;;;;5.25;0.70;;;;;;;5.82;78.44;101365.47;6287390;28;20040;-73
2023/03/15 11:28:05;;;;;;;2.17;0.88;;;;;;;5.73;77.50;101387.41;6290264;28;20052;-74
2023/03/15 11:31:07;;;;;;;2.08;0.40;;;;;;;5.35;82.07;101436.00;6284264;28;20063;-74
2023/03/15 11:34:15;;;;;;;0.22;0.22;;;;;;;4.53;93.26;101422.81;6286537;28;20048;-74
2023/03/15 11:37:21;;;;;;;0.70;0.40;;;;;;;4.21;100.00;101462.38;6288576;28;20049;-74
2023/03/15 11:40:31;;;;;;;0.82;0.57;;;;;;;3.65;100.00;101477.06;6289231;28;20051;-71
2023/03/15 11:43:46;;;;;;;1.45;0.40;;;;;;;3.17;100.00;101496.69;6288997;28;20346;-71
2023/03/15 11:46:50;;;;;;;3.38;0.35;;;;;;;3.11;100.00;101509.75;6283356;28;20444;-70
2023/03/15 11:49:53;;;;;;;0.30;0.30;;;;;;;2.85;100.00;101515.19;6289688;28;20466;-71
2023/03/15 11:53:01;;;;;;;0.43;0.30;;;;;;;2.84;100.00;101516.06;6289942;28;20049;-70
2023/03/15 11:56:20;;;;;;;0.93;0.20;;;;;;;2.87;100.00;101529.03;6285594;28;20041;-70
2023/03/15 11:59:26;;;;;;;0.30;0.30;;;;;;;2.99;100.00;101523.69;6289836;28;20048;-70
2023/03/15 12:02:49;;;;;;;1.25;0.13;;;;;;;2.78;100.00;101542.94;6290195;28;20045;-71
2023/03/15 12:05:52;;;;;;;5.88;0.45;;;;;;;2.82;100.00;101544.63;6289552;28;20443;-71
2023/03/15 12:08:55;;;;;;;0.10;0.10;;;;;;;2.62;100.00;101546.53;6289252;28;20067;-71
2023/03/15 12:11:58;;;;;;;0.10;0.10;;;;;;;2.49;100.00;101543.16;6288570;28;20365;-75
2023/03/15 12:15:04;;;;;;;0.68;0.40;;;;;;;1.97;100.00;101569.41;6288609;28;20049;-74
2023/03/15 12:18:06;;;;;;;0.25;0.25;;;;;;;1.78;100.00;101553.06;6289331;28;20056;-75
2023/03/15 12:21:11;;;;;;;0.98;0.57;;;;;;;1.58;100.00;101550.53;6289246;28;20045;-75
2023/03/15 12:24:23;;;;;;;1.15;0.30;;;;;;;1.52;100.00;101559.19;6289689;28;20056;-75
2023/03/15 12:27:28;;;;;;;0.30;0.30;;;;;;;1.57;100.00;101543.66;6289265;28;20383;-75
2023/03/15 12:30:32;;;;;;;0.30;0.13;;;;;;;1.80;100.00;101540.09;6285230;28;20056;-75
2023/03/15 12:33:45;;;;;;;0.10;0.10;;;;;;;1.94;100.00;101544.34;6288610;28;20056;-75
2023/03/15 12:36:49;;;;;;;2.15;0.50;;;;;;;2.16;100.00;101547.69;6286089;28;20045;-75
2023/03/15 12:40:00;;;;;;;0.75;0.40;;;;;;;2.36;100.00;101546.69;6289025;28;20380;-75
2023/03/15 12:43:02;;;;;;;3.67;0.35;;;;;;;2.70;100.00;101548.19;6289678;28;20373;-74
2023/03/15 12:46:03;;;;;;;0.77;0.45;;;;;;;3.01;100.00;101547.94;6285299;28;20352;-75
2023/03/15 12:49:05;;;;;;;1.55;0.30;;;;;;;3.36;100.00;101544.97;6285025;28;20044;-74
2023/03/15 12:52:25;;;;;;;1.08;0.45;;;;;;;3.88;100.00;101533.97;6288421;28;20334;-72
2023/03/15 12:55:32;;;;;;;0.55;0.35;;;;;;;4.05;100.00;101542.41;6288708;28;20367;-73
2023/03/15 12:58:37;;;;;;;1.85;0.35;;;;;;;4.33;100.00;101537.66;6288552;28;20055;-72
2023/03/15 13:01:41;;;;;;;6.03;0.38;;;;;;;4.24;100.00;101544.75;6289663;28;20049;-72
2023/03/15 13:04:42;;;;;;;0.10;0.10;;;;;;;4.25;100.00;101539.50;6285152;28;20595;-72
2023/03/15 13:07:54;;;;;;;1.50;0.28;;;;;;;4.51;100.00;101533.06;6287809;28;20041;-72
2023/03/15 13:11:10;;;;;;;6.07;0.90;;;;;;;4.71;100.00;101544.00;6289483;28;20048;-74
2023/03/15 13:14:30;;;;;;;0.30;0.25;;;;;;;5.00;100.00;101542.66;6291263;28;20355;-72
2023/03/15 13:17:40;;;;;;;2.35;0.40;;;;;;;5.22;100.00;101535.31;6300624;28;20052;-74
2023/03/15 13:20:47;;;;;;;0.63;0.40;;;;;;;5.73;100.00;101532.59;6287891;28;20107;-72
2023/03/15 13:23:50;;;;;;;0.20;0.20;;;;;;;5.99;100.00;101537.25;6287805;28;20049;-72
2023/03/15 13:26:58;;;;;;;3.88;0.60;;;;;;;5.89;100.00;101528.75;6295558;28;20044;-73
2023/03/15 13:30:01;;;;;;;1.17;0.28;;;;;;;6.10;100.00;101533.53;6300962;28;20048;-72
2023/03/15 13:33:06;;;;;;;0.63;0.20;;;;;;;6.17;100.00;101538.63;6300945;28;20048;-73
2023/03/15 13:36:13;;;;;;;1.20;0.47;;;;;;;6.10;100.00;101533.53;6278227;28;20127;-73
2023/03/15 13:39:21;;;;;;;0.45;0.38;;;;;;;6.16;100.00;101529.06;6286527;28;20047;-72
2023/03/15 13:42:25;;;;;;;4.50;0.50;;;;;;;5.89;100.00;101526.16;6287968;28;20048;-73
2023/03/15 13:45:26;;;;;;;1.60;0.40;;;;;;;5.14;100.00;101529.41;6285973;28;20428;-73
2023/03/15 13:48:29;;;;;;;0.52;0.47;;;;;;;4.96;100.00;101525.38;6282733;28;20055;-72
2023/03/15 13:51:33;;;;;;;0.75;0.32;;;;;;;5.16;100.00;101528.47;6285499;28;20055;-72
2023/03/15 13:54:35;;;;;;;6.53;1.95;;;;;;;5.60;100.00;101519.78;6282954;28;20444;-73
2023/03/15 13:57:38;;;;;;;6.22;1.75;;;;;;;5.85;100.00;101522.72;6285687;28;20129;-72
2023/03/15 14:00:40;;;;;;;2.83;0.40;;;;;;;5.92;100.00;101514.84;6285986;28;20052;-72
2023/03/15 14:03:43;;;;;;;0.10;0.10;;;;;;;6.05;100.00;101514.53;6291477;28;20131;-72
2023/03/15 14:06:45;;;;;;;0.88;0.30;;;;;;;6.28;100.00;101505.31;6300101;28;20040;-73
2023/03/15 14:09:48;;;;;;;0.63;0.30;;;;;;;6.43;100.00;101504.09;6290153;28;20059;-73
2023/03/15 14:12:52;;;;;;;2.97;0.65;;;;;;;6.68;100.00;101497.38;6285650;28;20047;-72
2023/03/15 14:15:56;;;;;;;1.20;0.10;;;;;;;7.00;100.00;101496.53;6276050;28;20131;-72